createdAt,value
2018-08-13T00:00:03.867Z,82.50
2018-08-13T00:02:35.634Z,83.10
2018-08-13T00:05:06.873Z,84.40
2018-08-13T00:07:37.705Z,84.70
2018-08-13T00:10:09.438Z,85.70
2018-08-13T00:12:41.584Z,85.60
2018-08-13T00:15:12.807Z,85.70
2018-08-13T00:17:44.737Z,84.20
2018-08-13T00:20:16.849Z,84.50
2018-08-13T00:22:48.961Z,83.50
2018-08-13T00:25:25.520Z,84.30
2018-08-13T00:27:57.267Z,84.30
2018-08-13T00:30:28.466Z,83.80
2018-08-13T00:35:31.899Z,86.50
2018-08-13T00:38:00.928Z,85.70
2018-08-13T00:43:05.084Z,85.20
2018-08-13T00:45:34.337Z,84.70
2018-08-13T00:48:03.574Z,84.70
2018-08-13T00:53:07.425Z,84.20
2018-08-13T00:55:36.775Z,85.60
2018-08-13T00:58:06.167Z,88.00
2018-08-13T01:00:35.197Z,86.90
2018-08-13T01:03:04.606Z,85.30
2018-08-13T01:05:33.678Z,85.20
2018-08-13T01:08:03.349Z,85.50
2018-08-13T01:10:32.644Z,86.70
2018-08-13T01:13:01.627Z,86.90
2018-08-13T01:15:30.660Z,88.30
2018-08-13T01:17:59.803Z,88.70
2018-08-13T01:20:28.772Z,89.70
2018-08-13T01:22:57.780Z,90.10
2018-08-13T01:25:26.929Z,88.80
2018-08-13T01:27:56.120Z,88.30
2018-08-13T01:30:25.263Z,89.30
2018-08-13T01:32:54.367Z,88.30
2018-08-13T01:35:23.275Z,90.40
2018-08-13T01:37:52.271Z,90.20
2018-08-13T01:40:21.529Z,90.80
2018-08-13T01:42:50.583Z,90.30
2018-08-13T01:45:19.700Z,89.20
2018-08-13T01:47:48.736Z,87.60
2018-08-13T01:50:17.975Z,86.70
2018-08-13T01:52:47.135Z,87.90
2018-08-13T01:55:16.262Z,88.10
2018-08-13T01:57:45.262Z,87.60
2018-08-13T02:00:16.486Z,88.80
2018-08-13T02:02:45.483Z,88.40
2018-08-13T02:05:14.518Z,88.80
2018-08-13T02:07:43.881Z,89.50
2018-08-13T02:10:13.891Z,89.90
2018-08-13T02:12:43.746Z,89.50
2018-08-13T02:15:13.970Z,90.60
2018-08-13T02:17:43.821Z,90.10
2018-08-13T02:20:13.895Z,88.40
2018-08-13T02:22:44.011Z,90.50
2018-08-13T02:25:14.467Z,90.30
2018-08-13T02:27:44.318Z,90.40
2018-08-13T02:30:14.901Z,89.70
2018-08-13T02:32:44.344Z,90.40
2018-08-13T02:35:14.415Z,90.30
2018-08-13T02:37:44.474Z,89.60
2018-08-13T02:40:14.511Z,89.70
2018-08-13T02:42:44.573Z,90.00
2018-08-13T02:45:14.615Z,89.00
2018-08-13T02:50:20.039Z,87.70
2018-08-13T02:52:49.261Z,87.30
2018-08-13T02:55:18.308Z,87.20
2018-08-13T02:57:47.241Z,88.30
2018-08-13T03:00:16.184Z,89.20
2018-08-13T03:02:49.024Z,88.30
2018-08-13T03:05:17.931Z,87.70
2018-08-13T03:07:47.551Z,87.80
2018-08-13T03:10:17.224Z,89.10
2018-08-13T03:12:46.251Z,87.70
2018-08-13T03:15:16.058Z,88.20
2018-08-13T03:17:45.474Z,87.70
2018-08-13T03:20:15.430Z,88.60
2018-08-13T03:22:48.599Z,87.20
2018-08-13T03:25:20.468Z,87.80
2018-08-13T03:27:52.116Z,87.00
2018-08-13T03:30:24.364Z,87.20
2018-08-13T03:32:57.873Z,86.80
2018-08-13T03:35:30.061Z,87.50
2018-08-13T03:38:01.650Z,87.80
2018-08-13T03:40:33.254Z,87.30
2018-08-13T03:43:06.073Z,88.80
2018-08-13T03:45:37.090Z,90.00
2018-08-13T03:48:08.511Z,89.20
2018-08-13T03:50:41.660Z,88.90
2018-08-13T03:53:15.685Z,88.80
2018-08-13T03:55:47.784Z,90.20
2018-08-13T03:58:20.020Z,90.00
2018-08-13T04:00:51.965Z,90.30
2018-08-13T04:03:22.803Z,89.80
2018-08-13T04:05:55.044Z,89.00
2018-08-13T04:08:27.400Z,88.20
2018-08-13T04:10:59.273Z,87.40
2018-08-13T04:13:31.152Z,87.90
2018-08-13T04:16:06.628Z,88.10
2018-08-13T04:18:38.390Z,87.70
2018-08-13T04:21:10.224Z,87.20
2018-08-13T04:23:42.571Z,86.90
2018-08-13T04:26:13.264Z,86.90
2018-08-13T04:28:45.086Z,88.60
2018-08-13T04:36:28.662Z,90.10
2018-08-13T04:38:59.193Z,89.40
2018-08-13T04:41:30.687Z,89.40
2018-08-13T04:44:01.661Z,90.60
2018-08-13T04:46:34.102Z,89.60
2018-08-13T04:49:04.932Z,90.10
2018-08-13T04:51:35.646Z,89.00
2018-08-13T04:54:05.894Z,88.10
2018-08-13T04:56:37.184Z,86.00
2018-08-13T04:59:09.394Z,84.70
2018-08-13T05:01:44.542Z,86.20
2018-08-13T05:04:15.754Z,85.80
2018-08-13T05:06:47.428Z,85.20
2018-08-13T05:09:21.305Z,84.50
2018-08-13T05:11:54.107Z,83.70
2018-08-13T05:14:25.420Z,82.80
2018-08-13T05:16:58.491Z,83.00
2018-08-13T05:19:29.419Z,82.80
2018-08-13T05:22:03.236Z,83.80
2018-08-13T05:24:38.069Z,82.20
2018-08-13T05:27:09.819Z,82.10
2018-08-13T05:29:41.053Z,79.80
2018-08-13T05:32:12.320Z,81.10
2018-08-13T05:34:42.508Z,81.20
2018-08-13T05:37:13.953Z,80.70
2018-08-13T05:39:45.434Z,82.10
2018-08-13T05:42:19.295Z,81.50
2018-08-13T05:44:49.996Z,80.40
2018-08-13T05:47:24.044Z,78.40
2018-08-13T05:49:55.913Z,80.20
2018-08-13T05:52:28.440Z,77.70
2018-08-13T05:55:01.464Z,78.00
2018-08-13T05:57:35.341Z,76.00
2018-08-13T06:00:07.148Z,76.40
2018-08-13T06:02:41.520Z,74.80
2018-08-13T06:05:13.393Z,74.30
2018-08-13T06:07:45.840Z,73.40
2018-08-13T06:10:17.452Z,74.80
2018-08-13T06:12:49.120Z,74.00
2018-08-13T06:15:20.839Z,74.20
2018-08-13T06:17:57.003Z,75.00
2018-08-13T06:20:27.725Z,73.50
2018-08-13T06:23:00.849Z,73.90
2018-08-13T06:25:31.632Z,73.10
2018-08-13T06:28:01.456Z,73.20
2018-08-13T06:30:33.286Z,73.80
2018-08-13T06:33:02.198Z,72.70
2018-08-13T06:35:33.120Z,71.70
2018-08-13T06:38:04.342Z,71.80
2018-08-13T06:40:37.932Z,71.20
2018-08-13T06:43:10.581Z,72.90
2018-08-13T06:45:46.440Z,72.00
2018-08-13T06:48:21.011Z,71.80
2018-08-13T06:50:53.641Z,72.40
2018-08-13T06:53:27.386Z,73.30
2018-08-13T06:56:00.246Z,71.60
2018-08-13T06:58:31.734Z,72.20
2018-08-13T07:01:01.853Z,71.30
2018-08-13T07:03:33.644Z,71.20
2018-08-13T07:08:40.724Z,72.00
2018-08-13T07:11:19.489Z,72.90
2018-08-13T07:13:50.763Z,72.80
2018-08-13T07:16:23.871Z,71.00
2018-08-13T07:18:56.196Z,72.90
2018-08-13T07:21:27.570Z,71.30
2018-08-13T07:23:59.723Z,70.30
2018-08-13T07:26:30.256Z,70.40
2018-08-13T07:29:01.729Z,70.20
2018-08-13T07:31:32.342Z,70.00
2018-08-13T07:34:03.907Z,69.80
2018-08-13T07:36:35.856Z,68.20
2018-08-13T07:39:12.401Z,70.30
2018-08-13T07:41:43.742Z,68.90
2018-08-13T07:44:14.932Z,70.70
2018-08-13T07:46:47.809Z,70.20
2018-08-13T07:49:19.993Z,67.80
2018-08-13T07:51:52.435Z,67.70
2018-08-13T07:54:21.383Z,69.00
2018-08-13T07:56:56.484Z,66.50
2018-08-13T07:59:28.542Z,65.50
2018-08-13T08:01:59.997Z,64.70
2018-08-13T08:04:33.036Z,64.50
2018-08-13T08:07:04.999Z,63.50
2018-08-13T08:09:33.862Z,63.70
2018-08-13T08:12:02.750Z,64.10
2018-08-13T08:14:31.897Z,62.30
2018-08-13T08:17:00.989Z,61.60
2018-08-13T08:19:30.142Z,62.20
2018-08-13T08:21:59.193Z,62.70
2018-08-13T08:24:28.214Z,62.70
2018-08-13T08:26:57.192Z,61.70
2018-08-13T08:29:26.782Z,63.40
2018-08-13T08:31:56.522Z,61.50
2018-08-13T08:34:26.980Z,63.00
2018-08-13T08:36:57.208Z,62.80
2018-08-13T08:39:26.831Z,63.00
2018-08-13T08:44:31.872Z,62.20
2018-08-13T08:47:00.971Z,60.60
2018-08-13T08:49:30.046Z,61.80
2018-08-13T08:51:59.073Z,60.20
2018-08-13T08:54:28.444Z,58.70
2018-08-13T08:56:57.678Z,59.70
2018-08-13T08:59:27.177Z,59.40
2018-08-13T09:01:56.922Z,59.00
2018-08-13T09:04:27.079Z,58.10
2018-08-13T09:06:57.482Z,57.00
2018-08-13T09:09:27.952Z,58.20
2018-08-13T09:11:56.931Z,58.50
2018-08-13T09:14:26.990Z,59.00
2018-08-13T09:16:57.156Z,58.00
2018-08-13T09:19:38.299Z,58.80
2018-08-13T09:22:19.421Z,57.30
2018-08-13T09:24:59.871Z,56.10
2018-08-13T09:27:39.923Z,57.20
2018-08-13T09:30:19.989Z,56.90
2018-08-13T09:33:00.103Z,54.00
2018-08-13T09:35:33.784Z,55.50
2018-08-13T09:38:02.848Z,54.80
2018-08-13T09:40:32.917Z,56.40
2018-08-13T09:43:02.107Z,57.00
2018-08-13T09:45:31.186Z,56.20
2018-08-13T09:48:00.193Z,53.80
2018-08-13T09:50:29.329Z,54.20
2018-08-13T09:52:58.622Z,52.30
2018-08-13T09:55:28.520Z,53.70
2018-08-13T09:57:57.929Z,52.80
2018-08-13T10:00:32.714Z,52.30
2018-08-13T10:03:01.636Z,52.20
2018-08-13T10:05:30.673Z,52.70
2018-08-13T10:07:59.738Z,52.90
2018-08-13T10:13:03.231Z,52.00
2018-08-13T10:15:32.251Z,51.80
2018-08-13T10:18:01.421Z,51.00
2018-08-13T10:20:30.476Z,50.00
2018-08-13T10:22:59.961Z,52.10
2018-08-13T10:25:28.956Z,53.20
2018-08-13T10:27:59.017Z,53.20
2018-08-13T10:30:28.081Z,52.50
2018-08-13T10:32:57.860Z,50.80
2018-08-13T10:35:28.114Z,52.00
2018-08-13T10:37:58.011Z,51.60
2018-08-13T10:40:31.524Z,49.70
2018-08-13T10:43:00.564Z,50.00
2018-08-13T10:45:30.202Z,50.70
2018-08-13T10:47:59.199Z,51.10
2018-08-13T10:50:28.635Z,50.40
2018-08-13T10:53:01.991Z,50.70
2018-08-13T10:55:31.238Z,49.80
2018-08-13T10:58:00.218Z,48.90
2018-08-13T11:03:04.997Z,52.50
2018-08-13T11:05:34.226Z,53.20
2018-08-13T11:08:03.799Z,50.70
2018-08-13T11:10:32.831Z,49.90
2018-08-13T11:13:02.678Z,49.10
2018-08-13T11:15:31.671Z,49.30
2018-08-13T11:18:00.905Z,51.60
2018-08-13T11:20:29.891Z,50.00
2018-08-13T11:22:58.959Z,49.70
2018-08-13T11:25:28.525Z,50.40
2018-08-13T11:27:58.440Z,50.50
2018-08-13T11:30:28.459Z,50.00
2018-08-13T11:32:58.856Z,50.50
2018-08-13T11:35:28.930Z,49.60
2018-08-13T11:37:59.130Z,51.30
2018-08-13T11:43:03.861Z,49.10
2018-08-13T11:45:32.866Z,50.70
2018-08-13T11:48:01.951Z,49.80
2018-08-13T11:50:31.018Z,50.30
2018-08-13T11:53:00.502Z,49.80
2018-08-13T11:55:29.731Z,49.50
2018-08-13T11:57:58.761Z,50.20
2018-08-13T12:00:29.193Z,47.60
2018-08-13T12:05:34.838Z,49.30
2018-08-13T12:08:03.912Z,49.80
2018-08-13T12:10:32.902Z,48.70
2018-08-13T12:13:01.927Z,47.80
2018-08-13T12:15:30.829Z,49.30
2018-08-13T12:18:00.068Z,47.90
2018-08-13T12:20:36.293Z,49.70
2018-08-13T12:23:05.225Z,49.90
2018-08-13T12:25:34.224Z,48.60
2018-08-13T12:28:03.415Z,48.80
2018-08-13T12:30:32.476Z,48.60
2018-08-13T12:33:01.700Z,48.90
2018-08-13T12:38:04.989Z,48.10
2018-08-13T12:40:33.987Z,48.30
2018-08-13T12:43:03.034Z,49.30
2018-08-13T12:45:32.167Z,47.90
2018-08-13T12:48:01.100Z,47.40
2018-08-13T12:50:30.377Z,46.70
2018-08-13T12:52:59.309Z,48.40
2018-08-13T12:55:28.329Z,46.70
2018-08-13T12:57:57.638Z,48.00
2018-08-13T13:05:35.181Z,46.10
2018-08-13T13:08:03.956Z,47.00
2018-08-13T13:10:33.296Z,46.30
2018-08-13T13:13:02.881Z,48.50
2018-08-13T13:15:31.980Z,47.10
2018-08-13T13:18:01.019Z,47.10
2018-08-13T13:20:30.234Z,47.10
2018-08-13T13:23:00.411Z,48.00
2018-08-13T13:25:29.483Z,46.70
2018-08-13T13:27:58.481Z,46.20
2018-08-13T13:30:27.453Z,47.00
2018-08-13T13:32:56.785Z,47.40
2018-08-13T13:35:25.789Z,44.10
2018-08-13T13:37:54.890Z,45.90
2018-08-13T13:40:23.998Z,48.00
2018-08-13T13:42:53.084Z,46.80
2018-08-13T13:45:22.070Z,46.00
2018-08-13T13:47:51.012Z,46.30
2018-08-13T13:52:57.241Z,45.80
2018-08-13T13:55:26.218Z,46.10
2018-08-13T13:57:55.136Z,46.40
2018-08-13T14:00:24.119Z,46.70
2018-08-13T14:02:53.291Z,45.70
2018-08-13T14:05:22.176Z,46.10
2018-08-13T14:07:51.028Z,45.50
2018-08-13T14:10:21.320Z,46.50
2018-08-13T14:12:50.289Z,47.00
2018-08-13T14:15:20.711Z,45.40
2018-08-13T14:17:50.067Z,45.40
2018-08-13T14:20:20.913Z,46.60
2018-08-13T14:22:49.932Z,47.40
2018-08-13T14:25:19.357Z,46.20
2018-08-13T14:27:48.459Z,46.30
2018-08-13T14:30:19.981Z,44.00
2018-08-13T14:32:49.429Z,46.90
2018-08-13T14:35:19.833Z,48.20
2018-08-13T14:37:49.099Z,47.90
2018-08-13T14:40:18.068Z,46.80
2018-08-13T14:42:47.031Z,46.70
2018-08-13T14:45:18.370Z,47.30
2018-08-13T14:47:48.943Z,46.90
2018-08-13T14:50:18.077Z,47.90
2018-08-13T14:52:48.083Z,47.00
2018-08-13T14:55:18.508Z,48.10
2018-08-13T14:57:47.808Z,48.30
2018-08-13T15:00:21.724Z,46.90
2018-08-13T15:02:51.060Z,47.90
2018-08-13T15:05:19.984Z,46.70
2018-08-13T15:07:48.957Z,46.80
2018-08-13T15:10:19.802Z,48.10
2018-08-13T15:12:48.941Z,47.60
2018-08-13T15:15:17.928Z,47.00
2018-08-13T15:17:47.120Z,47.30
2018-08-13T15:20:26.329Z,48.10
2018-08-13T15:22:55.372Z,47.90
2018-08-13T15:25:28.468Z,48.00
2018-08-13T15:27:57.337Z,48.10
2018-08-13T15:30:26.988Z,47.30
2018-08-13T15:32:56.094Z,46.60
2018-08-13T15:35:25.145Z,46.80
2018-08-13T15:37:54.071Z,48.70
2018-08-13T15:40:23.042Z,48.50
2018-08-13T15:42:52.121Z,48.10
2018-08-13T15:45:23.055Z,47.90
2018-08-13T15:47:52.406Z,48.10
2018-08-13T15:50:23.624Z,47.40
2018-08-13T15:52:53.089Z,47.10
2018-08-13T15:55:22.016Z,48.40
2018-08-13T15:57:52.096Z,46.80
2018-08-13T16:00:26.162Z,47.20
2018-08-13T16:02:55.299Z,47.10
2018-08-13T16:05:24.649Z,47.40
2018-08-13T16:07:54.038Z,47.40
2018-08-13T16:12:57.866Z,48.80
2018-08-13T16:15:27.309Z,48.50
2018-08-13T16:17:56.702Z,49.20
2018-08-13T16:20:25.587Z,49.20
2018-08-13T16:22:54.695Z,50.10
2018-08-13T16:25:24.088Z,50.30
2018-08-13T16:27:53.228Z,50.20
2018-08-13T16:30:25.678Z,50.30
2018-08-13T16:32:54.752Z,50.30
2018-08-13T16:35:24.411Z,50.40
2018-08-13T16:37:55.922Z,50.60
2018-08-13T16:40:26.064Z,50.50
2018-08-13T16:42:55.689Z,50.50
2018-08-13T16:45:25.555Z,50.60
2018-08-13T16:47:54.474Z,51.40
2018-08-13T16:50:26.214Z,51.40
2018-08-13T16:52:55.563Z,52.30
2018-08-13T16:55:24.837Z,52.20
2018-08-13T16:57:53.868Z,52.50
2018-08-13T17:00:25.163Z,53.30
2018-08-13T17:02:54.905Z,52.70
2018-08-13T17:05:25.440Z,52.20
2018-08-13T17:07:55.279Z,53.10
2018-08-13T17:10:26.313Z,53.10
2018-08-13T17:12:55.912Z,53.50
2018-08-13T17:15:25.936Z,54.50
2018-08-13T17:17:56.535Z,53.90
2018-08-13T17:20:31.108Z,53.00
2018-08-13T17:25:34.571Z,54.80
2018-08-13T17:28:04.713Z,57.30
2018-08-13T17:30:33.868Z,57.00
2018-08-13T17:33:02.777Z,57.10
2018-08-13T17:35:33.762Z,56.70
2018-08-13T17:38:03.520Z,57.90
2018-08-13T17:40:32.629Z,58.60
2018-08-13T17:43:01.626Z,57.60
2018-08-13T17:45:32.566Z,58.40
2018-08-13T17:48:01.758Z,57.30
2018-08-13T17:50:32.321Z,58.50
2018-08-13T17:53:02.974Z,58.00
2018-08-13T17:55:34.937Z,56.80
2018-08-13T17:58:05.405Z,56.30
2018-08-13T18:00:35.348Z,56.70
2018-08-13T18:03:05.196Z,55.70
2018-08-13T18:05:35.250Z,57.70
2018-08-13T18:08:06.431Z,58.10
2018-08-13T18:10:36.507Z,58.10
2018-08-13T18:13:08.221Z,59.10
2018-08-13T18:15:38.774Z,61.10
2018-08-13T18:18:08.765Z,60.30
2018-08-13T18:20:39.002Z,60.40
2018-08-13T18:23:09.909Z,60.50
2018-08-13T18:25:40.078Z,61.60
2018-08-13T18:28:10.041Z,63.20
2018-08-13T18:30:41.029Z,63.40
2018-08-13T18:33:11.803Z,63.50
2018-08-13T18:35:41.887Z,63.30
2018-08-13T18:38:11.883Z,63.00
2018-08-13T18:40:41.948Z,62.90
2018-08-13T18:43:11.965Z,63.30
2018-08-13T18:45:41.976Z,64.50
2018-08-13T18:48:12.508Z,67.00
2018-08-13T18:53:25.115Z,66.30
2018-08-13T18:55:55.382Z,67.80
2018-08-13T18:58:26.274Z,68.50
2018-08-13T19:00:56.651Z,66.90
2018-08-13T19:03:27.465Z,67.20
2018-08-13T19:05:57.718Z,67.40
2018-08-13T19:08:27.964Z,67.00
2018-08-13T19:10:58.349Z,68.50
2018-08-13T19:13:28.476Z,68.00
2018-08-13T19:15:59.340Z,67.80
2018-08-13T19:18:30.821Z,69.30
2018-08-13T19:21:03.544Z,68.80
2018-08-13T19:23:35.724Z,68.40
2018-08-13T19:26:08.584Z,68.30
2018-08-13T19:28:39.449Z,69.40
2018-08-13T19:31:11.366Z,69.20
2018-08-13T19:33:44.104Z,68.90
2018-08-13T19:36:15.919Z,70.10
2018-08-13T19:38:51.706Z,70.00
2018-08-13T19:41:23.660Z,70.30
2018-08-13T19:43:58.417Z,71.30
2018-08-13T19:46:31.157Z,71.60
2018-08-13T19:49:04.471Z,71.60
2018-08-13T19:51:36.782Z,70.80
2018-08-13T19:54:08.287Z,70.70
2018-08-13T19:56:39.811Z,71.10
2018-08-13T19:59:10.668Z,72.20
2018-08-13T20:01:41.727Z,73.00
2018-08-13T20:04:14.581Z,72.80
2018-08-13T20:06:47.063Z,72.50
2018-08-13T20:09:18.487Z,72.50
2018-08-13T20:11:53.775Z,73.70
2018-08-13T20:14:25.984Z,72.90
2018-08-13T20:16:57.241Z,73.80
2018-08-13T20:19:28.331Z,73.30
2018-08-13T20:21:58.358Z,73.10
2018-08-13T20:24:30.534Z,73.60
2018-08-13T20:27:01.214Z,72.30
2018-08-13T20:29:32.312Z,71.30
2018-08-13T20:32:03.354Z,71.20
2018-08-13T20:34:33.632Z,71.10
2018-08-13T20:37:03.917Z,71.10
2018-08-13T20:39:34.835Z,72.00
2018-08-13T20:42:05.180Z,72.60
2018-08-13T20:44:35.594Z,73.30
2018-08-13T20:47:06.456Z,73.10
2018-08-13T20:49:36.716Z,73.70
2018-08-13T20:52:06.817Z,73.70
2018-08-13T20:54:38.688Z,72.70
2018-08-13T20:57:08.698Z,73.00
2018-08-13T20:59:38.769Z,72.20
2018-08-13T21:02:08.894Z,72.80
2018-08-13T21:04:40.170Z,72.40
2018-08-13T21:07:11.444Z,72.50
2018-08-13T21:09:41.255Z,72.60
2018-08-13T21:12:11.560Z,72.90
2018-08-13T21:14:42.593Z,72.90
2018-08-13T21:17:12.370Z,72.60
2018-08-13T21:19:42.339Z,73.20
2018-08-13T21:22:14.754Z,73.60
2018-08-13T21:24:45.937Z,72.90
2018-08-13T21:27:18.312Z,73.30
2018-08-13T21:29:53.415Z,73.70
2018-08-13T21:32:32.614Z,74.20
2018-08-13T21:35:06.294Z,74.40
2018-08-13T21:37:37.575Z,74.10
2018-08-13T21:40:16.021Z,74.80
2018-08-13T21:42:47.619Z,75.50
2018-08-13T21:45:19.283Z,75.50
2018-08-13T21:47:50.599Z,75.40
2018-08-13T21:50:23.801Z,75.30
2018-08-13T21:52:55.211Z,75.70
2018-08-13T21:55:26.741Z,75.40
2018-08-13T21:57:59.044Z,75.60
2018-08-13T22:00:32.985Z,75.20
2018-08-13T22:03:05.113Z,75.40
2018-08-13T22:05:35.951Z,76.50
2018-08-13T22:08:07.418Z,75.80
2018-08-13T22:10:45.115Z,75.90
2018-08-13T22:13:16.102Z,76.50
2018-08-13T22:15:47.836Z,76.20
2018-08-13T22:18:19.095Z,76.20
2018-08-13T22:20:52.349Z,76.50
2018-08-13T22:23:24.118Z,76.90
2018-08-13T22:25:56.860Z,76.90
2018-08-13T22:28:31.086Z,76.70
2018-08-13T22:31:01.919Z,76.40
2018-08-13T22:33:32.869Z,76.70
2018-08-13T22:36:04.738Z,77.10
2018-08-13T22:38:35.947Z,78.30
2018-08-13T22:41:07.921Z,79.60
2018-08-13T22:43:38.941Z,80.10
2018-08-13T22:46:12.396Z,79.60
2018-08-13T22:48:43.998Z,79.70
2018-08-13T22:51:19.836Z,81.80
2018-08-13T22:53:51.615Z,82.20
2018-08-13T22:56:23.925Z,81.90
2018-08-13T22:58:55.245Z,82.60
2018-08-13T23:01:29.020Z,83.50
2018-08-13T23:04:04.974Z,83.50
2018-08-13T23:06:38.356Z,83.50
2018-08-13T23:09:16.945Z,82.90
2018-08-13T23:11:52.472Z,81.50
2018-08-13T23:14:25.927Z,81.80
2018-08-13T23:17:02.820Z,81.40
2018-08-13T23:19:35.033Z,81.80
2018-08-13T23:22:08.132Z,82.80
2018-08-13T23:24:38.908Z,82.90
2018-08-13T23:27:10.816Z,83.20
2018-08-13T23:29:42.940Z,83.10
2018-08-13T23:32:15.868Z,83.10
2018-08-13T23:34:49.780Z,83.30
2018-08-13T23:37:23.186Z,82.70
2018-08-13T23:39:54.092Z,83.30
2018-08-13T23:42:31.180Z,82.20
2018-08-13T23:45:03.227Z,81.70
2018-08-13T23:47:34.532Z,80.50
2018-08-13T23:50:08.766Z,79.40
2018-08-13T23:52:43.500Z,78.70
2018-08-13T23:55:21.551Z,78.30
2018-08-13T23:57:53.285Z,77.30
